Chandler Heights, Arizona
Current Conditions -  °F | °C
As of 8:47 AM on Wednesday 26 Nov 2014 (Local Time) from KIWA Reporting Station
Clear Clear  
Wind Chill: 46°   Ceiling: Unl
Heat Index: 46°   Visibility: 45mi
Dew Point: 16°   Wind: 3mph
Humidity: 29%   Direction: 110°ESE
Pressure: 30.33"   Gusts: NA
Location:  33.21°N, 111.69°W
Report Text: KIWA 261547Z 11003KT 45SM SKC 08/M09 A3033
Loading
Personal Weather Stations






























Interactive Weather Map New forecast layout! Learn more

10-Day Weather Forecast

Advertisements
Track Severe Weather on mobile